Latest Weather Observations for Red Rocks Point

IDW60801

Issued at 10:33 pm WST Sunday 26 February 2017 (issued every 30 minutes, with the page automatically refreshed every 10 minutes)

About weather observations | Map of weather stations | Latest weather observations for WA | Other Formats
Station Details ID: 011053 Name: RED ROCKS POINT Lat: -32.20 Lon: 127.53 Height: 3.1 m
Data from the previous 72 hours. | See also: Recent months at Red Rocks Point
Date/Time
WST
Temp
°C
App
Temp
°C
Dew
Point
°C
Rel
Hum
%
Delta-T
°C
Wind Press
QNH
hPa
Press
MSL
hPa
Rain since
9am
mm
Dir  Spd
km/h
Gust
km/h
Spd
kts
Gust
kts
26/10:00pm 19.4 18.9 17.7 90 1.0 NE 17 20 9 11 1015.8 1015.8 0.0
26/09:30pm 19.9 19.9 18.0 89 1.2 NE 15 17 8 9 1015.9 1015.9 0.0
26/09:00pm 21.2 19.3 19.3 89 1.2 ENE 28 32 15 17 1015.9 1015.9 0.0
26/08:30pm 21.2 19.6 19.3 89 1.2 ENE 26 30 14 16 1016.0 1016.0 0.0
26/08:00pm 21.2 19.6 19.3 89 1.2 E 26 32 14 17 1016.0 1016.0 0.0
26/07:30pm 21.2 19.6 19.3 89 1.2 ENE 26 28 14 15 1015.6 1015.6 0.0
26/07:00pm 21.3 19.4 19.4 89 1.2 ENE 28 32 15 17 1015.3 1015.3 0.0
26/06:30pm 21.3 19.0 19.4 89 1.2 E 30 33 16 18 1015.0 1015.0 0.0
26/06:00pm 21.4 19.5 19.3 88 1.3 E 28 35 15 19 1014.6 1014.6 0.0
26/05:30pm 21.7 19.4 19.3 86 1.5 E 30 35 16 19 1014.3 1014.3 0.0
26/05:00pm 22.1 19.8 19.3 84 1.8 E 30 35 16 19 1014.2 1014.2 0.0
26/04:30pm 22.6 20.8 19.6 83 1.9 E 28 33 15 18 1014.1 1014.1 0.0
26/04:00pm 22.5 20.1 19.1 81 2.2 E 30 35 16 19 1014.2 1014.2 0.0
26/03:30pm 22.8 20.8 19.2 80 2.3 E 28 33 15 18 1014.1 1014.1 0.0
26/03:00pm 23.1 21.1 19.1 78 2.5 E 28 32 15 17 1014.2 1014.2 0.0
26/02:30pm 23.2 21.2 19.2 78 2.5 E 28 32 15 17 1014.3 1014.3 0.0
26/02:00pm 23.2 21.5 18.9 77 2.7 E 26 28 14 15 1014.4 1014.4 0.0
26/01:30pm 23.6 22.3 19.1 76 2.9 E 24 28 13 15 1014.7 1014.7 0.0
26/01:00pm 23.4 22.0 18.9 76 2.9 E 24 28 13 15 1015.0 1015.0 0.0
26/12:30pm 23.4 21.6 18.7 75 3.0 E 26 30 14 16 1015.3 1015.3 0.0
26/12:00pm 23.3 21.9 18.8 76 2.8 E 24 28 13 15 1015.5 1015.5 0.0
26/11:30am 23.2 21.6 18.3 74 3.1 E 24 28 13 15 1015.9 1015.9 0.0
26/11:00am 23.0 21.7 18.1 74 3.1 E 22 26 12 14 1016.4 1016.4 0.0
26/10:30am 22.4 20.7 18.0 76 2.7 E 24 28 13 15 1016.7 1016.7 0.0
26/10:00am 22.3 20.1 17.9 76 2.7 E 26 30 14 16 1017.0 1017.0 0.0
26/09:30am 22.3 21.1 17.4 74 3.0 E 20 24 11 13 1017.4 1017.4 0.0
26/09:00am 21.8 19.5 16.7 73 3.1 E 24 28 13 15 1017.5 1017.5 0.0
26/08:30am 21.1 18.7 16.5 75 2.8 E 24 28 13 15 1017.6 1017.6 0.0
26/08:00am 20.1 17.0 15.5 75 2.7 ENE 26 30 14 16 1017.4 1017.4 0.0
26/07:30am 19.3 16.9 15.4 78 2.3 ENE 22 30 12 16 1017.6 1017.6 0.0
26/07:00am 17.9 15.8 14.8 82 1.8 NE 19 26 10 14 1017.9 1017.9 0.0
26/06:30am 16.2 15.3 14.9 92 0.7 NE 13 17 7 9 1018.0 1018.0 0.0
26/06:00am 14.8 14.3 13.8 94 0.6 NNE 9 11 5 6 1017.9 1017.9 0.0
26/05:30am 14.4 12.2 13.4 94 0.6 NE 17 24 9 13 1017.7 1017.7 0.0
26/05:00am 14.6 11.9 13.6 94 0.6 NNE 20 28 11 15 1017.7 1017.7 0.0
26/04:30am 13.9 11.0 12.8 93 0.6 NNE 20 26 11 14 1017.5 1017.5 0.0
26/04:00am 14.3 11.6 13.0 92 0.7 NNE 19 24 10 13 1017.4 1017.4 0.0
26/03:30am 14.5 12.3 13.2 92 0.7 NNE 17 20 9 11 1017.4 1017.4 0.0
26/03:00am 14.8 12.6 13.3 91 0.8 NNE 17 20 9 11 1017.3 1017.3 0.0
26/02:30am 15.0 12.5 13.4 90 0.9 NNE 19 26 10 14 1017.4 1017.4 0.0
26/02:00am 15.5 13.1 13.7 89 1.0 NNE 19 28 10 15 1017.5 1017.5 0.0
26/01:30am 15.6 13.5 13.6 88 1.1 NE 17 24 9 13 1017.6 1017.6 0.0
26/01:00am 15.9 14.2 13.7 87 1.2 NE 15 20 8 11 1018.1 1018.1 0.0
26/12:30am 16.4 14.5 14.1 86 1.3 NE 17 20 9 11 1018.3 1018.3 0.0
26/12:00am 16.9 15.0 14.2 84 1.5 NE 17 22 9 12 1018.6 1018.6 0.0
 
Date/Time
WST
Temp
°C
App
Temp
°C
Dew
Point
°C
Rel
Hum
%
Delta-T
°C
Wind Press
QNH
hPa
Press
MSL
hPa
Rain since
9am
mm
Dir  Spd
km/h
Gust
km/h
Spd
kts
Gust
kts
25/11:30pm 17.4 15.0 14.5 83 1.7 NE 20 26 11 14 1018.8 1018.8 0.0
25/11:00pm 18.3 16.1 14.8 80 2.0 NE 20 39 11 21 1019.0 1019.0 0.0
25/10:30pm 19.6 14.7 16.3 81 2.0 ENE 37 46 20 25 1019.3 1019.3 0.0
25/10:00pm 19.4 14.3 15.9 80 2.1 ENE 37 43 20 23 1019.4 1019.4 0.0
25/09:30pm 19.7 14.5 16.5 82 1.9 E 39 44 21 24 1019.6 1019.6 0.0
25/09:00pm 19.8 14.5 16.3 80 2.1 E 39 46 21 25 1019.8 1019.8 0.0
25/08:30pm 19.8 14.9 16.3 80 2.1 E 37 46 20 25 1020.1 1020.1 0.0
25/08:00pm 19.9 15.0 16.3 80 2.2 E 37 44 20 24 1020.2 1020.2 0.0
25/07:30pm 19.9 14.6 16.2 79 2.2 E 39 44 21 24 1020.1 1020.1 0.0
25/07:00pm 20.0 14.6 16.0 78 2.4 E 39 44 21 24 1019.9 1019.9 0.0
25/06:30pm 20.1 14.3 16.1 78 2.4 E 41 46 22 25 1019.9 1019.9 0.0
25/06:00pm 20.1 14.6 15.7 76 2.6 E 39 44 21 24 1019.6 1019.6 0.0
25/05:30pm 20.6 15.3 16.2 76 2.6 E 39 46 21 25 1019.6 1019.6 0.0
25/05:00pm 20.8 15.4 16.0 74 2.9 E 39 46 21 25 1019.8 1019.8 0.0
25/04:30pm 21.1 15.9 16.5 75 2.8 E 39 44 21 24 1020.0 1020.0 0.0
25/04:00pm 21.6 16.7 16.3 72 3.2 E 37 44 20 24 1020.2 1020.2 0.0
25/03:30pm 21.5 15.9 15.6 69 3.5 E 39 46 21 25 1020.3 1020.3 0.0
25/03:00pm 21.7 16.2 15.8 69 3.5 E 39 44 21 24 1020.4 1020.4 0.0
25/02:30pm 21.9 16.4 15.7 68 3.7 E 39 43 21 23 1020.7 1020.7 0.0
25/02:00pm 22.0 16.4 15.6 67 3.8 E 39 43 21 23 1021.1 1021.1 0.0
25/01:30pm 22.2 17.2 16.0 68 3.7 E 37 41 20 22 1021.5 1021.5 0.0
25/01:00pm 22.2 16.8 15.1 64 4.2 E 37 43 20 23 1021.8 1021.8 0.0
25/12:30pm 22.4 17.8 16.0 67 3.9 E 35 41 19 22 1022.3 1022.3 0.0
25/12:00pm 22.1 17.5 15.2 65 4.1 E 33 41 18 22 1022.6 1022.6 0.0
25/11:30am 22.2 17.6 15.1 64 4.2 ESE 33 41 18 22 1022.9 1022.9 0.0
25/11:00am 22.0 17.6 15.1 65 4.1 E 32 35 17 19 1023.2 1023.2 0.0
25/10:30am 22.0 18.1 15.4 66 3.9 E 30 35 16 19 1023.6 1023.6 0.0
25/10:00am 21.8 17.5 14.4 63 4.3 E 30 35 16 19 1024.1 1024.1 0.0
25/09:30am 21.6 17.0 14.5 64 4.2 E 32 35 17 19 1024.4 1024.4 0.0
25/09:00am 21.6 17.4 14.7 65 4.0 E 30 35 16 19 1024.7 1024.7 0.0
25/08:30am 20.7 17.1 14.1 66 3.8 ENE 26 32 14 17 1024.9 1024.9 0.0
25/08:00am 20.0 15.8 13.5 66 3.7 ENE 28 35 15 19 1025.2 1025.2 0.0
25/07:30am 19.8 15.4 14.2 70 3.2 ENE 30 39 16 21 1025.2 1025.2 0.0
25/07:00am 19.7 16.5 14.3 71 3.1 ENE 24 33 13 18 1025.2 1025.2 0.0
25/06:30am 19.5 15.6 14.3 72 3.0 E 28 32 15 17 1025.3 1025.3 0.0
25/06:00am 19.3 14.5 13.9 71 3.1 E 32 37 17 20 1025.1 1025.1 0.0
25/05:30am 19.2 14.6 13.6 70 3.2 E 30 37 16 20 1024.9 1024.9 0.0
25/05:00am 19.3 14.5 13.9 71 3.1 E 32 39 17 21 1024.7 1024.7 0.0
25/04:30am 19.2 15.0 13.4 69 3.3 E 28 35 15 19 1024.6 1024.6 0.0
25/04:00am 19.3 15.2 13.7 70 3.2 ENE 28 43 15 23 1024.6 1024.6 0.0
25/03:30am 19.4 16.2 14.2 72 3.0 ENE 24 32 13 17 1024.6 1024.6 0.0
25/03:00am 19.3 15.2 13.7 70 3.2 E 28 39 15 21 1024.6 1024.6 0.0
25/02:30am 19.3 15.2 13.7 70 3.2 E 28 41 15 22 1024.6 1024.6 0.0
25/02:00am 19.3 15.2 13.7 70 3.2 ENE 28 39 15 21 1024.9 1024.9 0.0
25/01:30am 19.4 15.0 14.0 71 3.1 ENE 30 37 16 20 1025.0 1025.0 0.0
25/01:00am 19.7 14.1 14.5 72 3.0 E 37 44 20 24 1024.8 1024.8 0.0
25/12:30am 19.7 15.1 14.5 72 3.0 E 32 46 17 25 1025.1 1025.1 0.0
25/12:00am 19.4 14.0 14.0 71 3.1 E 35 44 19 24 1025.3 1025.3 0.0
 
Date/Time
WST
Temp
°C
App
Temp
°C
Dew
Point
°C
Rel
Hum
%
Delta-T
°C
Wind Press
QNH
hPa
Press
MSL
hPa
Rain since
9am
mm
Dir  Spd
km/h
Gust
km/h
Spd
kts
Gust
kts
24/11:30pm 19.4 14.0 13.8 70 3.2 E 35 44 19 24 1025.5 1025.5 0.0
24/11:00pm 19.8 14.2 14.4 71 3.1 E 37 46 20 25 1025.6 1025.6 0.0
24/10:30pm 19.7 14.4 14.1 70 3.2 E 35 46 19 25 1025.6 1025.6 0.0
24/10:00pm 20.0 14.8 14.6 71 3.1 E 35 46 19 25 1025.8 1025.8 0.0
24/09:30pm 19.6 13.2 13.3 67 3.6 E 39 48 21 26 1025.9 1025.9 0.0
24/09:00pm 20.0 14.7 14.1 69 3.4 E 35 41 19 22 1026.2 1026.2 0.0
24/08:30pm 20.0 14.6 13.9 68 3.5 E 35 43 19 23 1026.5 1026.5 0.0
24/08:00pm 20.4 15.4 15.0 71 3.2 E 35 46 19 25 1026.2 1026.2 0.0
24/07:30pm 20.3 15.5 14.7 70 3.3 E 33 44 18 24 1026.0 1026.0 0.0
24/07:00pm 20.2 14.5 14.3 69 3.4 E 37 44 20 24 1025.9 1025.9 0.0
24/06:30pm 20.5 16.0 14.8 70 3.3 E 32 39 17 21 1025.8 1025.8 0.0
24/06:00pm 20.4 15.6 14.5 69 3.4 E 33 41 18 22 1025.7 1025.7 0.0
24/05:30pm 20.5 15.8 14.2 67 3.7 ESE 32 43 17 23 1025.6 1025.6 0.0
24/05:00pm 20.8 16.4 14.0 65 3.9 ESE 30 35 16 19 1025.8 1025.8 0.0
24/04:30pm 21.1 16.4 14.3 65 4.0 ESE 32 35 17 19 1025.8 1025.8 0.0
24/04:00pm 21.4 17.2 14.6 65 4.0 E 30 35 16 19 1025.8 1025.8 0.0
24/03:30pm 22.2 18.2 14.1 60 4.7 ESE 28 32 15 17 1025.7 1025.7 0.0
24/03:00pm 22.4 18.9 13.5 57 5.1 ESE 24 30 13 16 1025.9 1025.9 0.0
24/02:30pm 23.0 19.6 13.8 56 5.4 ESE 24 28 13 15 1026.0 1026.0 0.0
24/02:00pm 22.9 19.4 13.4 55 5.5 ESE 24 30 13 16 1026.3 1026.3 0.0
24/01:30pm 23.3 19.6 13.8 55 5.5 ESE 26 30 14 16 1026.5 1026.5 0.0
24/01:00pm 23.4 19.8 13.0 52 6.0 ESE 24 28 13 15 1026.9 1026.9 0.0
24/12:30pm 22.6 19.6 13.7 57 5.2 ESE 22 28 12 15 1027.3 1027.3 0.0
24/12:00pm 23.0 19.4 14.3 58 5.1 ESE 26 30 14 16 1027.5 1027.5 0.0
24/11:30am 22.1 18.8 14.0 60 4.7 ESE 24 30 13 16 1027.8 1027.8 0.0
24/11:00am 22.4 19.5 14.0 59 4.9 ESE 22 32 12 17 1028.1 1028.1 0.0
24/10:30am 22.9 19.9 13.7 56 5.3 ESE 22 28 12 15 1028.3 1028.3 0.0
24/10:00am 22.5 20.2 13.0 55 5.4 ESE 17 20 9 11 1028.4 1028.4 0.0
24/09:30am 21.9 19.4 13.5 59 4.8 E 19 24 10 13 1028.6 1028.6 0.0
24/09:00am 22.5 19.5 12.4 52 5.7 ESE 20 26 11 14 1028.7 1028.7 0.0
24/08:30am 22.1 19.0 13.5 58 5.0 E 22 28 12 15 1028.7 1028.7 0.0
24/08:00am 21.1 18.2 13.0 60 4.6 ESE 20 26 11 14 1028.6 1028.6 0.0
24/07:30am 20.6 17.1 13.3 63 4.2 ESE 24 28 13 15 1028.3 1028.3 0.0
24/07:00am 20.5 17.6 13.0 62 4.2 E 20 26 11 14 1028.1 1028.1 0.0
24/06:30am 20.2 17.2 12.7 62 4.2 E 20 28 11 15 1027.8 1027.8 0.0
24/06:00am 20.1 17.5 13.3 65 3.9 ESE 19 24 10 13 1027.4 1027.4 0.0
24/05:30am 20.0 16.6 13.7 67 3.6 ESE 24 30 13 16 1027.2 1027.2 0.0
24/05:00am 19.8 17.7 13.5 67 3.6 ESE 17 20 9 11 1026.8 1026.8 0.0
24/04:30am 19.5 16.5 12.0 62 4.2 E 19 22 10 12 1026.6 1026.6 0.0
24/04:00am 19.3 16.2 12.1 63 4.0 ESE 20 28 11 15 1026.3 1026.3 0.0
24/03:30am 19.5 16.6 13.0 66 3.7 E 20 26 11 14 1026.1 1026.1 0.0
24/03:00am 19.5 15.7 12.5 64 3.9 ESE 24 28 13 15 1026.1 1026.1 0.0
24/02:30am 19.9 17.4 13.6 67 3.6 E 19 24 10 13 1025.9 1025.9 0.0
24/02:00am 19.7 17.0 12.9 65 3.8 ESE 19 26 10 14 1025.9 1025.9 0.0
24/01:30am 19.7 16.4 12.7 64 3.9 ESE 22 28 12 15 1025.8 1025.8 0.0
24/01:00am 19.7 16.8 12.9 65 3.8 E 20 26 11 14 1025.9 1025.9 0.0
24/12:30am 19.7 16.4 12.7 64 3.9 E 22 24 12 13 1026.1 1026.1 0.0
24/12:00am 20.0 16.5 13.5 66 3.7 ESE 24 28 13 15 1026.1 1026.1 0.0
 
Date/Time
WST
Temp
°C
App
Temp
°C
Dew
Point
°C
Rel
Hum
%
Delta-T
°C
Wind Press
QNH
hPa
Press
MSL
hPa
Rain since
9am
mm
Dir  Spd
km/h
Gust
km/h
Spd
kts
Gust
kts
23/11:30pm 19.8 16.9 12.8 64 3.9 ESE 20 24 11 13 1026.0 1026.0 0.0
23/11:00pm 20.0 16.9 13.5 66 3.7 ESE 22 30 12 16 1026.0 1026.0 0.0

Other Formats:

Comma delimited format used in spreadsheet applications
http://www.bom.gov.au/fwo/IDW60801/IDW60801.94644.axf

JavaScript Object Notation format (JSON) in row-major order
http://www.bom.gov.au/fwo/IDW60801/IDW60801.94644.json